sensor_id;sensor_type;location;lat;lon;timestamp;pressure;altitude;pressure_sealevel;temperature;humidity
64967;BME280;51710;38.732;-121.358;2023-05-24T00:02:11;100261.06;;;27.24;40.09
64967;BME280;51710;38.732;-121.358;2023-05-24T00:04:39;100263.84;;;27.14;39.74
64967;BME280;51710;38.732;-121.358;2023-05-24T00:07:06;100252.09;;;27.09;39.96
64967;BME280;51710;38.732;-121.358;2023-05-24T00:09:33;100247.72;;;27.08;40.23
64967;BME280;51710;38.732;-121.358;2023-05-24T00:11:59;100251.25;;;27.08;40.19
64967;BME280;51710;38.732;-121.358;2023-05-24T00:14:26;100249.06;;;27.15;40.24
64967;BME280;51710;38.732;-121.358;2023-05-24T00:16:52;100243.84;;;27.19;39.98
64967;BME280;51710;38.732;-121.358;2023-05-24T00:19:19;100245.75;;;27.18;39.90
64967;BME280;51710;38.732;-121.358;2023-05-24T00:21:47;100263.31;;;27.12;39.64
64967;BME280;51710;38.732;-121.358;2023-05-24T00:24:14;100251.25;;;27.08;39.48
64967;BME280;51710;38.732;-121.358;2023-05-24T00:26:42;100261.13;;;26.99;39.99
64967;BME280;51710;38.732;-121.358;2023-05-24T00:29:09;100249.91;;;27.01;39.80
64967;BME280;51710;38.732;-121.358;2023-05-24T00:31:36;100243.34;;;27.02;39.85
64967;BME280;51710;38.732;-121.358;2023-05-24T00:34:02;100245.00;;;26.93;39.86
64967;BME280;51710;38.732;-121.358;2023-05-24T00:36:29;100240.09;;;26.90;40.08
64967;BME280;51710;38.732;-121.358;2023-05-24T00:38:56;100239.03;;;26.76;39.86
64967;BME280;51710;38.732;-121.358;2023-05-24T00:41:22;100234.09;;;26.52;40.11
64967;BME280;51710;38.732;-121.358;2023-05-24T00:43:49;100237.91;;;26.41;40.51
64967;BME280;51710;38.732;-121.358;2023-05-24T00:46:17;100235.44;;;26.45;40.68
64967;BME280;51710;38.732;-121.358;2023-05-24T00:48:45;100238.72;;;26.42;40.80
64967;BME280;51710;38.732;-121.358;2023-05-24T00:51:12;100236.53;;;26.39;40.62
64967;BME280;51710;38.732;-121.358;2023-05-24T00:53:41;100233.53;;;26.35;41.08
64967;BME280;51710;38.732;-121.358;2023-05-24T00:56:11;100242.28;;;26.37;41.61
64967;BME280;51710;38.732;-121.358;2023-05-24T00:58:38;100241.72;;;26.40;41.38
64967;BME280;51710;38.732;-121.358;2023-05-24T01:01:05;100238.44;;;26.33;41.50
64967;BME280;51710;38.732;-121.358;2023-05-24T01:03:33;100229.44;;;26.23;41.67
64967;BME280;51710;38.732;-121.358;2023-05-24T01:06:03;100231.59;;;26.11;41.62
64967;BME280;51710;38.732;-121.358;2023-05-24T01:17:05;100236.28;;;26.35;41.01
64967;BME280;51710;38.732;-121.358;2023-05-24T01:22:37;100253.44;;;26.11;41.66
64967;BME280;51710;38.732;-121.358;2023-05-24T01:28:12;100240.81;;;25.90;42.17
64967;BME280;51710;38.732;-121.358;2023-05-24T01:30:41;100236.41;;;25.79;42.99
64967;BME280;51710;38.732;-121.358;2023-05-24T01:33:08;100232.84;;;25.68;43.00
64967;BME280;51710;38.732;-121.358;2023-05-24T01:35:36;100237.94;;;25.54;43.44
64967;BME280;51710;38.732;-121.358;2023-05-24T01:38:06;100236.28;;;25.43;43.76
64967;BME280;51710;38.732;-121.358;2023-05-24T01:40:33;100240.25;;;25.26;43.62
64967;BME280;51710;38.732;-121.358;2023-05-24T01:51:40;100239.56;;;25.04;44.17
64967;BME280;51710;38.732;-121.358;2023-05-24T01:54:07;100232.75;;;25.01;44.57
64967;BME280;51710;38.732;-121.358;2023-05-24T01:56:34;100240.38;;;24.99;44.77
64967;BME280;51710;38.732;-121.358;2023-05-24T01:59:02;100238.94;;;24.92;44.70
64967;BME280;51710;38.732;-121.358;2023-05-24T02:01:30;100231.41;;;25.04;45.48
64967;BME280;51710;38.732;-121.358;2023-05-24T02:03:58;100232.75;;;25.48;45.06
64967;BME280;51710;38.732;-121.358;2023-05-24T02:06:25;100236.09;;;25.70;44.34
64967;BME280;51710;38.732;-121.358;2023-05-24T02:08:51;100223.56;;;25.69;44.18
64967;BME280;51710;38.732;-121.358;2023-05-24T02:11:18;100235.22;;;25.49;44.04
64967;BME280;51710;38.732;-121.358;2023-05-24T02:13:44;100234.81;;;25.26;44.78
64967;BME280;51710;38.732;-121.358;2023-05-24T02:16:11;100239.88;;;25.07;45.06
64967;BME280;51710;38.732;-121.358;2023-05-24T02:18:38;100243.84;;;24.90;44.98
64967;BME280;51710;38.732;-121.358;2023-05-24T02:21:05;100244.84;;;24.74;45.27
64967;BME280;51710;38.732;-121.358;2023-05-24T02:23:31;100247.91;;;24.56;45.84
64967;BME280;51710;38.732;-121.358;2023-05-24T02:25:57;100245.66;;;24.42;46.24
64967;BME280;51710;38.732;-121.358;2023-05-24T02:28:24;100246.59;;;24.26;46.47
64967;BME280;51710;38.732;-121.358;2023-05-24T02:30:51;100248.97;;;24.18;46.60
64967;BME280;51710;38.732;-121.358;2023-05-24T02:33:19;100257.00;;;24.08;46.56
64967;BME280;51710;38.732;-121.358;2023-05-24T02:35:46;100258.97;;;23.91;46.92
64967;BME280;51710;38.732;-121.358;2023-05-24T02:38:12;100266.66;;;23.72;47.23
64967;BME280;51710;38.732;-121.358;2023-05-24T02:40:39;100264.31;;;23.59;47.65
64967;BME280;51710;38.732;-121.358;2023-05-24T02:43:05;100277.09;;;23.59;47.60
64967;BME280;51710;38.732;-121.358;2023-05-24T02:45:34;100272.09;;;23.51;47.54
64967;BME280;51710;38.732;-121.358;2023-05-24T02:48:01;100272.78;;;23.41;47.79
64967;BME280;51710;38.732;-121.358;2023-05-24T02:50:28;100275.34;;;23.31;48.22
64967;BME280;51710;38.732;-121.358;2023-05-24T02:52:54;100275.75;;;23.23;48.16
64967;BME280;51710;38.732;-121.358;2023-05-24T02:55:21;100279.91;;;23.09;48.40
64967;BME280;51710;38.732;-121.358;2023-05-24T02:57:47;100285.13;;;22.94;48.51
64967;BME280;51710;38.732;-121.358;2023-05-24T03:00:14;100281.41;;;22.83;48.91
64967;BME280;51710;38.732;-121.358;2023-05-24T03:02:41;100285.03;;;22.72;49.09
64967;BME280;51710;38.732;-121.358;2023-05-24T03:05:08;100292.09;;;22.57;48.92
64967;BME280;51710;38.732;-121.358;2023-05-24T03:07:34;100295.13;;;22.44;49.55
64967;BME280;51710;38.732;-121.358;2023-05-24T03:10:05;100297.06;;;22.31;49.53
64967;BME280;51710;38.732;-121.358;2023-05-24T03:12:32;100303.88;;;22.17;49.95
64967;BME280;51710;38.732;-121.358;2023-05-24T03:14:59;100305.22;;;22.03;50.08
64967;BME280;51710;38.732;-121.358;2023-05-24T03:17:26;100311.50;;;21.92;49.97
64967;BME280;51710;38.732;-121.358;2023-05-24T03:19:52;100310.22;;;21.83;50.40
64967;BME280;51710;38.732;-121.358;2023-05-24T03:22:19;100306.22;;;21.74;50.62
64967;BME280;51710;38.732;-121.358;2023-05-24T03:24:46;100310.38;;;21.65;50.48
64967;BME280;51710;38.732;-121.358;2023-05-24T03:27:13;100309.34;;;21.55;50.84
64967;BME280;51710;38.732;-121.358;2023-05-24T03:29:41;100317.59;;;21.48;51.08
64967;BME280;51710;38.732;-121.358;2023-05-24T03:32:10;100319.47;;;21.36;51.39
64967;BME280;51710;38.732;-121.358;2023-05-24T03:34:37;100331.16;;;21.25;51.58
64967;BME280;51710;38.732;-121.358;2023-05-24T03:37:03;100329.88;;;21.16;51.80
64967;BME280;51710;38.732;-121.358;2023-05-24T03:39:30;100333.63;;;21.03;51.96
64967;BME280;51710;38.732;-121.358;2023-05-24T03:41:56;100337.94;;;20.93;52.07
64967;BME280;51710;38.732;-121.358;2023-05-24T03:44:22;100343.72;;;20.85;52.37
64967;BME280;51710;38.732;-121.358;2023-05-24T03:46:49;100339.44;;;20.77;52.68
64967;BME280;51710;38.732;-121.358;2023-05-24T03:49:15;100336.38;;;20.74;52.98
64967;BME280;51710;38.732;-121.358;2023-05-24T03:51:42;100338.50;;;20.72;53.06
64967;BME280;51710;38.732;-121.358;2023-05-24T03:54:32;100349.44;;;20.65;52.65
64967;BME280;51710;38.732;-121.358;2023-05-24T03:57:00;100353.28;;;20.58;53.00
64967;BME280;51710;38.732;-121.358;2023-05-24T03:59:27;100361.00;;;20.43;53.02
64967;BME280;51710;38.732;-121.358;2023-05-24T04:01:55;100360.38;;;20.29;53.36
64967;BME280;51710;38.732;-121.358;2023-05-24T04:04:22;100355.03;;;20.23;53.40
64967;BME280;51710;38.732;-121.358;2023-05-24T04:06:49;100364.09;;;20.17;53.37
64967;BME280;51710;38.732;-121.358;2023-05-24T04:09:16;100364.13;;;20.10;53.62
64967;BME280;51710;38.732;-121.358;2023-05-24T04:11:43;100371.88;;;20.06;53.88
64967;BME280;51710;38.732;-121.358;2023-05-24T04:14:09;100374.66;;;20.00;53.80
64967;BME280;51710;38.732;-121.358;2023-05-24T04:16:38;100373.69;;;19.94;54.00
64967;BME280;51710;38.732;-121.358;2023-05-24T04:19:06;100377.28;;;19.88;54.08
64967;BME280;51710;38.732;-121.358;2023-05-24T04:21:34;100376.31;;;19.83;54.25
64967;BME280;51710;38.732;-121.358;2023-05-24T04:24:01;100379.72;;;19.78;54.29
64967;BME280;51710;38.732;-121.358;2023-05-24T04:26:29;100392.00;;;19.74;54.65
64967;BME280;51710;38.732;-121.358;2023-05-24T04:28:56;100391.09;;;19.62;54.73
64967;BME280;51710;38.732;-121.358;2023-05-24T04:31:22;100385.41;;;19.52;55.08
64967;BME280;51710;38.732;-121.358;2023-05-24T04:33:49;100401.63;;;19.46;55.04
64967;BME280;51710;38.732;-121.358;2023-05-24T04:36:15;100399.63;;;19.41;55.14
64967;BME280;51710;38.732;-121.358;2023-05-24T04:38:42;100404.25;;;19.34;55.28
64967;BME280;51710;38.732;-121.358;2023-05-24T04:41:11;100405.94;;;19.29;55.38
64967;BME280;51710;38.732;-121.358;2023-05-24T04:43:38;100417.78;;;19.28;55.67
64967;BME280;51710;38.732;-121.358;2023-05-24T04:46:05;100416.56;;;19.24;55.61
64967;BME280;51710;38.732;-121.358;2023-05-24T04:48:32;100428.06;;;19.19;55.71
64967;BME280;51710;38.732;-121.358;2023-05-24T04:50:58;100427.66;;;19.16;55.71
64967;BME280;51710;38.732;-121.358;2023-05-24T04:53:25;100432.06;;;19.10;55.79
64967;BME280;51710;38.732;-121.358;2023-05-24T04:55:52;100444.56;;;19.04;55.98
64967;BME280;51710;38.732;-121.358;2023-05-24T04:58:18;100449.34;;;19.02;55.91
64967;BME280;51710;38.732;-121.358;2023-05-24T05:00:47;100455.63;;;18.96;56.02
64967;BME280;51710;38.732;-121.358;2023-05-24T05:03:14;100457.72;;;18.94;55.98
64967;BME280;51710;38.732;-121.358;2023-05-24T05:05:40;100461.06;;;18.90;55.99
64967;BME280;51710;38.732;-121.358;2023-05-24T05:08:07;100458.56;;;18.88;55.80
64967;BME280;51710;38.732;-121.358;2023-05-24T05:10:34;100458.19;;;18.85;55.73
64967;BME280;51710;38.732;-121.358;2023-05-24T05:13:01;100459.69;;;18.81;55.63
64967;BME280;51710;38.732;-121.358;2023-05-24T05:15:28;100463.00;;;18.76;55.61
64967;BME280;51710;38.732;-121.358;2023-05-24T05:17:55;100464.13;;;18.69;55.35
64967;BME280;51710;38.732;-121.358;2023-05-24T05:20:22;100475.75;;;18.63;55.29
64967;BME280;51710;38.732;-121.358;2023-05-24T05:22:49;100469.13;;;18.59;55.18
64967;BME280;51710;38.732;-121.358;2023-05-24T05:25:16;100473.31;;;18.55;55.17
64967;BME280;51710;38.732;-121.358;2023-05-24T05:27:43;100467.91;;;18.55;55.18
64967;BME280;51710;38.732;-121.358;2023-05-24T05:30:10;100476.41;;;18.52;55.00
64967;BME280;51710;38.732;-121.358;2023-05-24T05:32:37;100474.16;;;18.49;55.14
64967;BME280;51710;38.732;-121.358;2023-05-24T05:35:03;100463.81;;;18.46;55.13
64967;BME280;51710;38.732;-121.358;2023-05-24T05:37:30;100473.75;;;18.45;55.18
64967;BME280;51710;38.732;-121.358;2023-05-24T05:39:57;100460.94;;;18.41;55.45
64967;BME280;51710;38.732;-121.358;2023-05-24T05:42:24;100455.09;;;18.37;55.21
64967;BME280;51710;38.732;-121.358;2023-05-24T05:44:51;100456.34;;;18.35;55.15
64967;BME280;51710;38.732;-121.358;2023-05-24T05:47:17;100445.38;;;18.30;55.31
64967;BME280;51710;38.732;-121.358;2023-05-24T05:49:44;100454.94;;;18.26;55.50
64967;BME280;51710;38.732;-121.358;2023-05-24T05:52:10;100451.63;;;18.24;55.18
64967;BME280;51710;38.732;-121.358;2023-05-24T05:54:37;100448.31;;;18.22;55.43
64967;BME280;51710;38.732;-121.358;2023-05-24T05:57:03;100445.63;;;18.22;55.53
64967;BME280;51710;38.732;-121.358;2023-05-24T05:59:30;100449.34;;;18.21;55.53
64967;BME280;51710;38.732;-121.358;2023-05-24T06:01:57;100453.09;;;18.20;55.73
64967;BME280;51710;38.732;-121.358;2023-05-24T06:04:24;100453.09;;;18.20;55.69
64967;BME280;51710;38.732;-121.358;2023-05-24T06:06:51;100441.69;;;18.18;55.73
64967;BME280;51710;38.732;-121.358;2023-05-24T06:09:18;100452.28;;;18.13;55.78
64967;BME280;51710;38.732;-121.358;2023-05-24T06:11:44;100450.66;;;18.05;55.75
64967;BME280;51710;38.732;-121.358;2023-05-24T06:14:11;100449.44;;;17.94;56.04
64967;BME280;51710;38.732;-121.358;2023-05-24T06:16:43;100441.16;;;17.89;56.09
64967;BME280;51710;38.732;-121.358;2023-05-24T06:19:11;100450.31;;;17.88;56.30
64967;BME280;51710;38.732;-121.358;2023-05-24T06:21:39;100455.28;;;17.85;56.28
64967;BME280;51710;38.732;-121.358;2023-05-24T06:24:13;100451.13;;;17.82;56.48
64967;BME280;51710;38.732;-121.358;2023-05-24T06:26:40;100459.44;;;17.74;56.45
64967;BME280;51710;38.732;-121.358;2023-05-24T06:29:06;100466.91;;;17.72;56.50
64967;BME280;51710;38.732;-121.358;2023-05-24T06:31:34;100476.00;;;17.71;56.75
64967;BME280;51710;38.732;-121.358;2023-05-24T06:34:01;100476.84;;;17.72;56.74
64967;BME280;51710;38.732;-121.358;2023-05-24T06:36:27;100473.31;;;17.71;56.88
64967;BME280;51710;38.732;-121.358;2023-05-24T06:38:53;100473.13;;;17.66;56.78
64967;BME280;51710;38.732;-121.358;2023-05-24T06:41:20;100477.28;;;17.62;56.87
64967;BME280;51710;38.732;-121.358;2023-05-24T06:43:47;100468.59;;;17.60;57.03
64967;BME280;51710;38.732;-121.358;2023-05-24T06:46:14;100477.06;;;17.57;57.12
64967;BME280;51710;38.732;-121.358;2023-05-24T06:48:41;100473.97;;;17.54;57.12
64967;BME280;51710;38.732;-121.358;2023-05-24T06:51:08;100467.13;;;17.51;57.29
64967;BME280;51710;38.732;-121.358;2023-05-24T06:53:34;100466.72;;;17.48;57.37
64967;BME280;51710;38.732;-121.358;2023-05-24T06:56:01;100471.88;;;17.49;57.52
64967;BME280;51710;38.732;-121.358;2023-05-24T06:58:27;100491.56;;;17.50;57.35
64967;BME280;51710;38.732;-121.358;2023-05-24T07:00:53;100482.66;;;17.49;57.30
64967;BME280;51710;38.732;-121.358;2023-05-24T07:03:20;100486.75;;;17.45;57.19
64967;BME280;51710;38.732;-121.358;2023-05-24T07:05:46;100487.59;;;17.39;57.32
64967;BME280;51710;38.732;-121.358;2023-05-24T07:08:13;100480.56;;;17.32;57.47
64967;BME280;51710;38.732;-121.358;2023-05-24T07:10:39;100499.63;;;17.30;57.55
64967;BME280;51710;38.732;-121.358;2023-05-24T07:13:06;100504.16;;;17.30;57.59
64967;BME280;51710;38.732;-121.358;2023-05-24T07:15:32;100496.72;;;17.25;57.72
64967;BME280;51710;38.732;-121.358;2023-05-24T07:17:59;100491.75;;;17.22;57.61
64967;BME280;51710;38.732;-121.358;2023-05-24T07:20:25;100497.09;;;17.16;58.02
64967;BME280;51710;38.732;-121.358;2023-05-24T07:22:53;100497.09;;;17.09;58.14
64967;BME280;51710;38.732;-121.358;2023-05-24T07:25:19;100496.88;;;17.04;58.08
64967;BME280;51710;38.732;-121.358;2023-05-24T07:27:46;100489.63;;;16.98;58.31
64967;BME280;51710;38.732;-121.358;2023-05-24T07:30:12;100487.13;;;16.90;58.74
64967;BME280;51710;38.732;-121.358;2023-05-24T07:32:39;100486.09;;;16.84;58.88
64967;BME280;51710;38.732;-121.358;2023-05-24T07:35:05;100479.06;;;16.77;58.73
64967;BME280;51710;38.732;-121.358;2023-05-24T07:37:32;100485.84;;;16.73;58.95
64967;BME280;51710;38.732;-121.358;2023-05-24T07:39:58;100492.25;;;16.72;59.16
64967;BME280;51710;38.732;-121.358;2023-05-24T07:42:25;100493.28;;;16.71;59.06
64967;BME280;51710;38.732;-121.358;2023-05-24T07:44:51;100498.03;;;16.69;59.19
64967;BME280;51710;38.732;-121.358;2023-05-24T07:47:17;100507.97;;;16.68;59.25
64967;BME280;51710;38.732;-121.358;2023-05-24T07:49:43;100516.88;;;16.69;59.27
64967;BME280;51710;38.732;-121.358;2023-05-24T07:52:10;100512.72;;;16.66;59.31
64967;BME280;51710;38.732;-121.358;2023-05-24T07:54:36;100509.41;;;16.58;59.57
64967;BME280;51710;38.732;-121.358;2023-05-24T07:57:03;100515.16;;;16.55;59.58
64967;BME280;51710;38.732;-121.358;2023-05-24T07:59:29;100520.53;;;16.55;59.62
64967;BME280;51710;38.732;-121.358;2023-05-24T08:01:55;100522.22;;;16.56;59.74
64967;BME280;51710;38.732;-121.358;2023-05-24T08:04:28;100525.69;;;16.56;59.51
64967;BME280;51710;38.732;-121.358;2023-05-24T08:06:55;100524.25;;;16.54;59.83
64967;BME280;51710;38.732;-121.358;2023-05-24T08:09:22;100530.66;;;16.53;59.73
64967;BME280;51710;38.732;-121.358;2023-05-24T08:11:49;100531.69;;;16.52;59.65
64967;BME280;51710;38.732;-121.358;2023-05-24T08:14:15;100533.75;;;16.50;60.08
64967;BME280;51710;38.732;-121.358;2023-05-24T08:16:41;100531.66;;;16.45;59.85
64967;BME280;51710;38.732;-121.358;2023-05-24T08:19:08;100529.16;;;16.44;59.78
64967;BME280;51710;38.732;-121.358;2023-05-24T08:21:34;100534.91;;;16.41;60.20
64967;BME280;51710;38.732;-121.358;2023-05-24T08:24:02;100528.09;;;16.38;60.05
64967;BME280;51710;38.732;-121.358;2023-05-24T08:26:28;100530.56;;;16.40;60.06
64967;BME280;51710;38.732;-121.358;2023-05-24T08:28:54;100526.22;;;16.39;60.07
64967;BME280;51710;38.732;-121.358;2023-05-24T08:31:20;100522.72;;;16.38;60.19
64967;BME280;51710;38.732;-121.358;2023-05-24T08:33:47;100524.97;;;16.35;60.26
64967;BME280;51710;38.732;-121.358;2023-05-24T08:36:16;100514.97;;;16.22;60.43
64967;BME280;51710;38.732;-121.358;2023-05-24T08:38:43;100519.88;;;16.12;60.63
64967;BME280;51710;38.732;-121.358;2023-05-24T08:41:10;100528.97;;;16.11;60.85
64967;BME280;51710;38.732;-121.358;2023-05-24T08:43:41;100526.28;;;16.11;61.14
64967;BME280;51710;38.732;-121.358;2023-05-24T08:46:11;100524.03;;;16.15;61.05
64967;BME280;51710;38.732;-121.358;2023-05-24T08:48:45;100518.28;;;16.18;60.95
64967;BME280;51710;38.732;-121.358;2023-05-24T08:51:15;100524.88;;;16.22;61.12
64967;BME280;51710;38.732;-121.358;2023-05-24T08:53:43;100519.91;;;16.19;60.77
64967;BME280;51710;38.732;-121.358;2023-05-24T08:56:17;100507.09;;;16.14;60.86
64967;BME280;51710;38.732;-121.358;2023-05-24T08:58:44;100515.72;;;16.10;61.02
64967;BME280;51710;38.732;-121.358;2023-05-24T09:01:13;100519.47;;;16.09;61.26
64967;BME280;51710;38.732;-121.358;2023-05-24T09:03:40;100513.00;;;16.03;60.93
64967;BME280;51710;38.732;-121.358;2023-05-24T09:06:08;100517.50;;;15.96;61.45
64967;BME280;51710;38.732;-121.358;2023-05-24T09:08:37;100518.28;;;15.90;61.29
64967;BME280;51710;38.732;-121.358;2023-05-24T09:11:04;100512.03;;;15.83;61.71
64967;BME280;51710;38.732;-121.358;2023-05-24T09:13:33;100515.97;;;15.81;61.45
64967;BME280;51710;38.732;-121.358;2023-05-24T09:16:00;100515.09;;;15.73;61.72
64967;BME280;51710;38.732;-121.358;2023-05-24T09:18:27;100522.06;;;15.68;61.85
64967;BME280;51710;38.732;-121.358;2023-05-24T09:20:53;100527.00;;;15.64;61.92
64967;BME280;51710;38.732;-121.358;2023-05-24T09:23:20;100527.13;;;15.56;61.96
64967;BME280;51710;38.732;-121.358;2023-05-24T09:25:47;100545.25;;;15.48;62.33
64967;BME280;51710;38.732;-121.358;2023-05-24T09:28:15;100549.13;;;15.45;62.41
64967;BME280;51710;38.732;-121.358;2023-05-24T09:30:43;100557.38;;;15.44;62.63
64967;BME280;51710;38.732;-121.358;2023-05-24T09:33:10;100555.72;;;15.43;62.52
64967;BME280;51710;38.732;-121.358;2023-05-24T09:35:41;100548.28;;;15.45;62.44
64967;BME280;51710;38.732;-121.358;2023-05-24T09:38:16;100542.34;;;15.49;62.50
64967;BME280;51710;38.732;-121.358;2023-05-24T09:40:43;100553.34;;;15.54;62.27
64967;BME280;51710;38.732;-121.358;2023-05-24T09:43:10;100565.47;;;15.50;62.56
64967;BME280;51710;38.732;-121.358;2023-05-24T09:45:46;100561.50;;;15.46;62.96
64967;BME280;51710;38.732;-121.358;2023-05-24T09:48:15;100568.94;;;15.44;62.93
64967;BME280;51710;38.732;-121.358;2023-05-24T09:53:25;100568.09;;;15.44;62.69
64967;BME280;51710;38.732;-121.358;2023-05-24T09:55:53;100572.00;;;15.41;62.74
64967;BME280;51710;38.732;-121.358;2023-05-24T09:58:21;100576.28;;;15.36;62.64
64967;BME280;51710;38.732;-121.358;2023-05-24T10:00:47;100582.00;;;15.33;62.79
64967;BME280;51710;38.732;-121.358;2023-05-24T10:03:13;100579.50;;;15.31;63.00
64967;BME280;51710;38.732;-121.358;2023-05-24T10:05:46;100562.31;;;15.26;62.76
64967;BME280;51710;38.732;-121.358;2023-05-24T10:08:13;100559.56;;;15.19;63.03
64967;BME280;51710;38.732;-121.358;2023-05-24T10:10:41;100557.94;;;15.18;63.19
64967;BME280;51710;38.732;-121.358;2023-05-24T10:13:08;100568.13;;;15.08;63.25
64967;BME280;51710;38.732;-121.358;2023-05-24T10:15:37;100578.38;;;15.05;63.38
64967;BME280;51710;38.732;-121.358;2023-05-24T10:18:04;100583.31;;;15.01;63.42
64967;BME280;51710;38.732;-121.358;2023-05-24T10:20:33;100574.25;;;15.02;63.48
64967;BME280;51710;38.732;-121.358;2023-05-24T10:23:02;100570.19;;;15.06;63.33
64967;BME280;51710;38.732;-121.358;2023-05-24T10:25:31;100569.34;;;15.06;63.26
64967;BME280;51710;38.732;-121.358;2023-05-24T10:28:02;100561.69;;;15.03;63.34
64967;BME280;51710;38.732;-121.358;2023-05-24T10:30:36;100572.22;;;15.04;63.18
64967;BME280;51710;38.732;-121.358;2023-05-24T10:33:06;100578.59;;;15.03;63.28
64967;BME280;51710;38.732;-121.358;2023-05-24T10:35:34;100566.59;;;14.99;63.45
64967;BME280;51710;38.732;-121.358;2023-05-24T10:38:07;100557.25;;;14.95;63.58
64967;BME280;51710;38.732;-121.358;2023-05-24T10:40:33;100549.41;;;14.94;63.55
64967;BME280;51710;38.732;-121.358;2023-05-24T10:43:03;100545.69;;;14.95;63.75
64967;BME280;51710;38.732;-121.358;2023-05-24T10:45:32;100542.38;;;14.93;63.50
64967;BME280;51710;38.732;-121.358;2023-05-24T10:50:35;100546.38;;;14.82;63.87
64967;BME280;51710;38.732;-121.358;2023-05-24T10:53:28;100550.53;;;14.85;63.83
64967;BME280;51710;38.732;-121.358;2023-05-24T10:58:43;100592.31;;;14.79;64.09
64967;BME280;51710;38.732;-121.358;2023-05-24T11:01:30;100602.06;;;14.80;64.15
64967;BME280;51710;38.732;-121.358;2023-05-24T11:04:11;100597.56;;;14.87;63.94
64967;BME280;51710;38.732;-121.358;2023-05-24T11:09:21;100585.19;;;14.86;63.89
64967;BME280;51710;38.732;-121.358;2023-05-24T11:11:49;100602.59;;;14.90;63.87
64967;BME280;51710;38.732;-121.358;2023-05-24T11:14:25;100620.31;;;14.91;63.79
64967;BME280;51710;38.732;-121.358;2023-05-24T11:16:52;100626.25;;;14.87;63.85
64967;BME280;51710;38.732;-121.358;2023-05-24T11:19:30;100629.22;;;14.77;64.12
64967;BME280;51710;38.732;-121.358;2023-05-24T11:22:02;100613.13;;;14.77;64.47
64967;BME280;51710;38.732;-121.358;2023-05-24T11:24:29;100605.34;;;14.82;64.30
64967;BME280;51710;38.732;-121.358;2023-05-24T11:26:56;100599.63;;;14.85;64.04
64967;BME280;51710;38.732;-121.358;2023-05-24T11:29:22;100596.94;;;14.85;64.21
64967;BME280;51710;38.732;-121.358;2023-05-24T11:31:54;100604.34;;;14.83;64.02
64967;BME280;51710;38.732;-121.358;2023-05-24T11:34:29;100610.91;;;14.81;63.93
64967;BME280;51710;38.732;-121.358;2023-05-24T11:37:00;100612.84;;;14.72;63.81
64967;BME280;51710;38.732;-121.358;2023-05-24T11:39:30;100617.50;;;14.63;64.26
64967;BME280;51710;38.732;-121.358;2023-05-24T11:41:58;100614.72;;;14.57;64.45
64967;BME280;51710;38.732;-121.358;2023-05-24T11:44:28;100609.09;;;14.52;64.78
64967;BME280;51710;38.732;-121.358;2023-05-24T11:47:03;100621.00;;;14.49;65.01
64967;BME280;51710;38.732;-121.358;2023-05-24T11:49:29;100622.69;;;14.50;64.91
64967;BME280;51710;38.732;-121.358;2023-05-24T11:51:57;100614.00;;;14.48;65.13
64967;BME280;51710;38.732;-121.358;2023-05-24T11:54:24;100616.69;;;14.48;65.10
64967;BME280;51710;38.732;-121.358;2023-05-24T11:56:52;100620.16;;;14.49;65.00
64967;BME280;51710;38.732;-121.358;2023-05-24T11:59:24;100627.59;;;14.47;65.17
64967;BME280;51710;38.732;-121.358;2023-05-24T12:02:01;100626.56;;;14.48;65.13
64967;BME280;51710;38.732;-121.358;2023-05-24T12:04:29;100630.88;;;14.49;65.23
64967;BME280;51710;38.732;-121.358;2023-05-24T12:06:56;100625.91;;;14.46;65.08
64967;BME280;51710;38.732;-121.358;2023-05-24T12:09:22;100621.56;;;14.45;65.35
64967;BME280;51710;38.732;-121.358;2023-05-24T12:11:50;100641.25;;;14.37;65.40
64967;BME280;51710;38.732;-121.358;2023-05-24T12:14:19;100638.94;;;14.34;65.67
64967;BME280;51710;38.732;-121.358;2023-05-24T12:16:48;100640.97;;;14.32;65.70
64967;BME280;51710;38.732;-121.358;2023-05-24T12:19:18;100647.50;;;14.30;65.88
64967;BME280;51710;38.732;-121.358;2023-05-24T12:21:48;100645.84;;;14.29;66.26
64967;BME280;51710;38.732;-121.358;2023-05-24T12:24:16;100652.53;;;14.25;65.95
64967;BME280;51710;38.732;-121.358;2023-05-24T12:26:49;100644.50;;;14.25;66.06
64967;BME280;51710;38.732;-121.358;2023-05-24T12:29:16;100646.84;;;14.28;65.90
64967;BME280;51710;38.732;-121.358;2023-05-24T12:31:46;100641.50;;;14.28;66.03
64967;BME280;51710;38.732;-121.358;2023-05-24T12:34:17;100648.91;;;14.26;66.29
64967;BME280;51710;38.732;-121.358;2023-05-24T12:36:44;100644.88;;;14.22;66.03
64967;BME280;51710;38.732;-121.358;2023-05-24T12:39:22;100651.97;;;14.15;66.12
64967;BME280;51710;38.732;-121.358;2023-05-24T12:41:53;100655.22;;;14.10;66.40
64967;BME280;51710;38.732;-121.358;2023-05-24T12:44:27;100653.72;;;14.08;66.43
64967;BME280;51710;38.732;-121.358;2023-05-24T12:46:55;100657.44;;;14.07;66.41
64967;BME280;51710;38.732;-121.358;2023-05-24T12:49:22;100660.25;;;14.05;66.41
64967;BME280;51710;38.732;-121.358;2023-05-24T12:51:49;100662.13;;;14.05;66.66
64967;BME280;51710;38.732;-121.358;2023-05-24T12:54:21;100667.81;;;14.02;66.80
64967;BME280;51710;38.732;-121.358;2023-05-24T12:56:48;100660.63;;;14.02;66.76
64967;BME280;51710;38.732;-121.358;2023-05-24T12:59:15;100665.50;;;13.99;66.90